Time;durP1;ratioP1;P1;durP2;ratioP2;P2;SDS_P1;SDS_P2;PMS_P1;PMS_P2;Temp;Humidity;BMP_temperature;BMP_pressure;BME280_temperature;BME280_humidity;BME280_pressure;Samples;Min_cycle;Max_cycle;Signal;HPM_P1;HPM_P2
2023/06/30 00:01:37;;;;;;;2.50;2.30;;;;;;;;;;4745470;30;20143;-84
2023/06/30 00:04:04;;;;;;;2.60;2.40;;;;;;;;;;4736804;30;20049;-84
2023/06/30 00:06:32;;;;;;;2.20;2.10;;;;;;;;;;4747859;30;20528;-85
2023/06/30 00:08:59;;;;;;;2.45;2.35;;;;;;;;;;4747930;30;20599;-84
2023/06/30 00:11:27;;;;;;;2.40;2.30;;;;;;;;;;4746226;30;20518;-84
2023/06/30 00:13:55;;;;;;;2.70;2.50;;;;;;;;;;4747005;30;20051;-84
2023/06/30 00:16:23;;;;;;;2.90;2.60;;;;;;;;;;4743398;30;20527;-84
2023/06/30 00:18:53;;;;;;;2.45;2.25;;;;;;;;;;4741088;30;20052;-84
2023/06/30 00:21:20;;;;;;;2.55;2.45;;;;;;;;;;4745464;30;20135;-84
2023/06/30 00:23:47;;;;;;;2.90;2.78;;;;;;;;;;4741038;30;20087;-84
2023/06/30 00:26:15;;;;;;;2.60;2.40;;;;;;;;;;4749397;30;20118;-85
2023/06/30 00:28:43;;;;;;;2.65;2.55;;;;;;;;;;4749720;30;20080;-85
2023/06/30 00:31:10;;;;;;;2.90;2.70;;;;;;;;;;4749469;30;20080;-84
2023/06/30 00:33:37;;;;;;;3.00;2.80;;;;;;;;;;4746016;30;20058;-85
2023/06/30 00:36:05;;;;;;;2.50;2.40;;;;;;;;;;4748611;30;20052;-85
2023/06/30 00:38:32;;;;;;;2.65;2.47;;;;;;;;;;4746550;30;20048;-84
2023/06/30 00:40:59;;;;;;;2.60;2.50;;;;;;;;;;4739020;30;20152;-85
2023/06/30 00:43:27;;;;;;;2.22;2.13;;;;;;;;;;4747845;30;20054;-85
2023/06/30 00:45:55;;;;;;;2.30;2.20;;;;;;;;;;4742699;30;20060;-85
2023/06/30 00:48:23;;;;;;;2.58;2.42;;;;;;;;;;4748882;30;20072;-84
2023/06/30 00:50:51;;;;;;;2.58;2.40;;;;;;;;;;4739357;30;20048;-88
2023/06/30 00:53:19;;;;;;;2.30;2.15;;;;;;;;;;4739906;30;20048;-84
2023/06/30 00:55:46;;;;;;;2.90;2.70;;;;;;;;;;4743519;30;20048;-84
2023/06/30 00:58:14;;;;;;;2.75;2.65;;;;;;;;;;4738180;30;20535;-85
2023/06/30 01:00:41;;;;;;;2.70;2.60;;;;;;;;;;4745327;30;20440;-84
2023/06/30 01:03:15;;;;;;;2.80;2.60;;;;;;;;;;4739136;30;20527;-84
2023/06/30 01:05:49;;;;;;;2.83;2.55;;;;;;;;;;4746027;30;20055;-85
2023/06/30 01:08:27;;;;;;;2.95;2.28;;;;;;;;;;4744773;30;20520;-84
2023/06/30 01:10:56;;;;;;;2.30;2.20;;;;;;;;;;4745168;30;20056;-85
2023/06/30 01:13:24;;;;;;;2.50;2.40;;;;;;;;;;4740550;30;20102;-84
2023/06/30 01:15:52;;;;;;;3.10;2.85;;;;;;;;;;4736770;30;20056;-84
2023/06/30 01:18:20;;;;;;;2.83;2.72;;;;;;;;;;4744459;30;21277;-84
2023/06/30 01:20:48;;;;;;;3.40;2.72;;;;;;;;;;4743172;30;20048;-84
2023/06/30 01:23:17;;;;;;;2.65;2.55;;;;;;;;;;4739654;30;20083;-84
2023/06/30 01:25:45;;;;;;;2.55;2.42;;;;;;;;;;4738318;30;20048;-83
2023/06/30 01:28:14;;;;;;;2.55;2.35;;;;;;;;;;4747403;30;20056;-85
2023/06/30 01:30:42;;;;;;;2.58;2.38;;;;;;;;;;4747299;30;20076;-85
2023/06/30 01:33:10;;;;;;;2.35;2.25;;;;;;;;;;4734001;30;20060;-84
2023/06/30 01:35:38;;;;;;;2.15;2.05;;;;;;;;;;4744117;30;20056;-85
2023/06/30 01:38:05;;;;;;;2.60;2.50;;;;;;;;;;4740562;30;20067;-84
2023/06/30 01:40:32;;;;;;;2.42;2.33;;;;;;;;;;4745248;30;20110;-85
2023/06/30 01:43:00;;;;;;;2.55;2.45;;;;;;;;;;4743921;30;20048;-83
2023/06/30 01:45:28;;;;;;;2.65;2.55;;;;;;;;;;4738824;30;20150;-83
2023/06/30 01:47:57;;;;;;;2.88;2.78;;;;;;;;;;4742740;30;20149;-84
2023/06/30 01:50:28;;;;;;;2.58;2.47;;;;;;;;;;4746227;30;20063;-85
2023/06/30 01:52:56;;;;;;;3.22;2.92;;;;;;;;;;4739573;30;20060;-86
2023/06/30 01:55:23;;;;;;;2.85;2.65;;;;;;;;;;4743002;30;20139;-84
2023/06/30 01:57:51;;;;;;;3.03;2.70;;;;;;;;;;4746966;30;20056;-84
2023/06/30 02:00:19;;;;;;;3.50;3.20;;;;;;;;;;4744160;30;20063;-85
2023/06/30 02:02:46;;;;;;;3.05;2.75;;;;;;;;;;4743687;30;20048;-84
2023/06/30 02:05:14;;;;;;;2.47;2.38;;;;;;;;;;4744121;30;20050;-85
2023/06/30 02:07:42;;;;;;;2.63;2.53;;;;;;;;;;4746034;30;20052;-85
2023/06/30 02:10:10;;;;;;;2.78;2.67;;;;;;;;;;4742171;30;20060;-85
2023/06/30 02:12:37;;;;;;;2.70;2.60;;;;;;;;;;4738158;30;20056;-85
2023/06/30 02:15:05;;;;;;;2.70;2.50;;;;;;;;;;4745685;30;20478;-85
2023/06/30 02:17:33;;;;;;;2.90;2.70;;;;;;;;;;4745822;30;20048;-84
2023/06/30 02:20:05;;;;;;;2.65;2.45;;;;;;;;;;4746430;30;20122;-85
2023/06/30 02:22:33;;;;;;;;;;;;;;;;;;4736594;30;20075;-85
2023/06/30 02:25:00;;;;;;;2.67;2.58;;;;;;;;;;4737957;30;20309;-85
2023/06/30 02:27:28;;;;;;;2.40;2.30;;;;;;;;;;4742269;30;20423;-84
2023/06/30 02:30:05;;;;;;;2.58;2.47;;;;;;;;;;4744477;30;20072;-84
2023/06/30 02:32:39;;;;;;;3.00;2.70;;;;;;;;;;4746459;30;20055;-84
2023/06/30 02:35:07;;;;;;;2.40;2.30;;;;;;;;;;4743121;30;20853;-84
2023/06/30 02:37:35;;;;;;;2.50;2.40;;;;;;;;;;4746023;30;20052;-85
2023/06/30 02:40:03;;;;;;;2.70;2.60;;;;;;;;;;4745038;30;20048;-83
2023/06/30 02:42:31;;;;;;;2.65;2.30;;;;;;;;;;4737516;30;20059;-85
2023/06/30 02:44:59;;;;;;;2.50;2.40;;;;;;;;;;4752847;30;20048;-84
2023/06/30 02:47:26;;;;;;;2.80;2.60;;;;;;;;;;4745081;30;20117;-85
2023/06/30 02:49:54;;;;;;;2.70;2.50;;;;;;;;;;4744175;30;20135;-84
2023/06/30 02:52:21;;;;;;;2.80;2.60;;;;;;;;;;4743479;30;20060;-85
2023/06/30 02:54:49;;;;;;;2.60;2.40;;;;;;;;;;4745209;30;20109;-84
2023/06/30 02:57:17;;;;;;;3.13;2.50;;;;;;;;;;4741019;30;20418;-85
2023/06/30 02:59:44;;;;;;;3.00;2.80;;;;;;;;;;4741625;30;20052;-85
2023/06/30 03:02:12;;;;;;;2.70;2.55;;;;;;;;;;4740939;30;20083;-85
2023/06/30 03:04:39;;;;;;;2.88;2.67;;;;;;;;;;4742920;30;20051;-84
2023/06/30 03:07:07;;;;;;;3.55;2.50;;;;;;;;;;4749865;30;20056;-85
2023/06/30 03:09:36;;;;;;;2.58;2.47;;;;;;;;;;4742833;30;20378;-83
2023/06/30 03:12:05;;;;;;;2.60;2.40;;;;;;;;;;4740572;30;20142;-83
2023/06/30 03:14:35;;;;;;;2.40;2.30;;;;;;;;;;4748677;30;20139;-84
2023/06/30 03:17:03;;;;;;;2.65;2.45;;;;;;;;;;4744992;30;20056;-85
2023/06/30 03:19:30;;;;;;;2.83;2.67;;;;;;;;;;4747503;30;20137;-84
2023/06/30 03:21:58;;;;;;;2.78;2.60;;;;;;;;;;4743473;30;20558;-84
2023/06/30 03:24:26;;;;;;;2.60;2.50;;;;;;;;;;4742157;30;20072;-84
2023/06/30 03:26:53;;;;;;;2.50;2.40;;;;;;;;;;4742901;30;20585;-84
2023/06/30 03:29:24;;;;;;;2.55;2.40;;;;;;;;;;4765991;30;20044;-84
2023/06/30 03:31:53;;;;;;;2.80;2.60;;;;;;;;;;4741830;30;20056;-84
2023/06/30 03:34:20;;;;;;;2.90;2.70;;;;;;;;;;4740340;30;20136;-84
2023/06/30 03:36:49;;;;;;;3.08;2.78;;;;;;;;;;4742641;30;20134;-84
2023/06/30 03:39:18;;;;;;;3.03;2.50;;;;;;;;;;4744170;30;20059;-85
2023/06/30 03:41:46;;;;;;;4.07;2.80;;;;;;;;;;4740048;30;20049;-84
2023/06/30 03:44:13;;;;;;;2.67;2.58;;;;;;;;;;4744579;30;20044;-84
2023/06/30 03:46:41;;;;;;;2.80;2.70;;;;;;;;;;4742905;30;20132;-85
2023/06/30 03:49:08;;;;;;;3.15;2.95;;;;;;;;;;4743664;30;20052;-85
2023/06/30 03:51:38;;;;;;;3.13;2.92;;;;;;;;;;4743164;30;20048;-84
2023/06/30 03:54:06;;;;;;;3.15;2.80;;;;;;;;;;4745334;30;20133;-85
2023/06/30 03:56:36;;;;;;;2.78;2.63;;;;;;;;;;4740484;30;20139;-85
2023/06/30 03:59:03;;;;;;;3.00;2.80;;;;;;;;;;4749396;30;20048;-85
2023/06/30 04:01:33;;;;;;;3.08;2.90;;;;;;;;;;4744476;30;20048;-84
2023/06/30 04:04:02;;;;;;;3.50;3.20;;;;;;;;;;4744134;30;20126;-86
2023/06/30 04:06:30;;;;;;;3.55;3.25;;;;;;;;;;4747670;30;20044;-85
2023/06/30 04:08:58;;;;;;;4.00;3.45;;;;;;;;;;4746300;30;20060;-84
2023/06/30 04:11:25;;;;;;;3.45;3.15;;;;;;;;;;4746454;30;20056;-84
2023/06/30 04:13:52;;;;;;;4.53;3.55;;;;;;;;;;4740708;30;20186;-85
2023/06/30 04:16:20;;;;;;;5.55;3.72;;;;;;;;;;4745429;30;20060;-85
2023/06/30 04:18:47;;;;;;;4.28;3.85;;;;;;;;;;4749738;30;20056;-85
2023/06/30 04:21:16;;;;;;;4.32;3.90;;;;;;;;;;4735386;30;20696;-85
2023/06/30 04:23:44;;;;;;;3.60;3.30;;;;;;;;;;4747378;30;20090;-85
2023/06/30 04:26:11;;;;;;;4.90;3.63;;;;;;;;;;4751764;30;20132;-84
2023/06/30 04:28:39;;;;;;;4.80;3.80;;;;;;;;;;4758136;30;20671;-85
2023/06/30 04:31:06;;;;;;;4.43;4.00;;;;;;;;;;4747885;30;20585;-83
2023/06/30 04:33:36;;;;;;;5.20;3.90;;;;;;;;;;4754548;30;20059;-84
2023/06/30 04:36:07;;;;;;;3.80;3.50;;;;;;;;;;4750041;30;20060;-85
2023/06/30 04:38:35;;;;;;;3.70;3.40;;;;;;;;;;4753100;30;20055;-84
2023/06/30 04:41:02;;;;;;;4.22;3.83;;;;;;;;;;4748348;30;20071;-85
2023/06/30 04:43:33;;;;;;;3.55;3.25;;;;;;;;;;4755622;30;20056;-85
2023/06/30 04:46:04;;;;;;;3.95;3.65;;;;;;;;;;4746027;30;20060;-85
2023/06/30 04:48:33;;;;;;;3.47;3.17;;;;;;;;;;4744059;30;20048;-85
2023/06/30 04:51:03;;;;;;;3.97;3.45;;;;;;;;;;4748635;30;20146;-86
2023/06/30 04:53:30;;;;;;;3.28;2.90;;;;;;;;;;4755521;30;20062;-85
2023/06/30 04:56:00;;;;;;;3.38;2.47;;;;;;;;;;4749988;30;20052;-85
2023/06/30 04:58:27;;;;;;;2.42;2.33;;;;;;;;;;4754963;30;20083;-85
2023/06/30 05:00:56;;;;;;;2.63;2.53;;;;;;;;;;4761885;30;20060;-84
2023/06/30 05:03:24;;;;;;;2.50;2.40;;;;;;;;;;4762425;30;20131;-85
2023/06/30 05:05:59;;;;;;;3.00;2.80;;;;;;;;;;4751739;30;20053;-85
2023/06/30 05:08:26;;;;;;;3.45;3.25;;;;;;;;;;4760517;30;20060;-85
2023/06/30 05:10:54;;;;;;;3.80;3.50;;;;;;;;;;4751054;30;20087;-85
2023/06/30 05:13:21;;;;;;;3.90;3.55;;;;;;;;;;4754482;30;20763;-84
2023/06/30 05:15:48;;;;;;;3.88;3.58;;;;;;;;;;4756006;30;20539;-83
2023/06/30 05:18:16;;;;;;;3.95;3.65;;;;;;;;;;4763008;30;20044;-83
2023/06/30 05:20:44;;;;;;;3.80;3.60;;;;;;;;;;4756637;30;20051;-84
2023/06/30 05:23:11;;;;;;;3.90;3.60;;;;;;;;;;4762353;30;20055;-84
2023/06/30 05:25:39;;;;;;;4.53;4.18;;;;;;;;;;4756982;30;20054;-83
2023/06/30 05:28:09;;;;;;;3.60;3.30;;;;;;;;;;4766161;30;20451;-86
2023/06/30 05:30:40;;;;;;;3.38;3.10;;;;;;;;;;4755868;30;20068;-85
2023/06/30 05:33:07;;;;;;;3.58;3.38;;;;;;;;;;4757365;30;20106;-84
2023/06/30 05:35:35;;;;;;;5.25;3.33;;;;;;;;;;4749342;30;20052;-85
2023/06/30 05:38:02;;;;;;;3.22;3.03;;;;;;;;;;4762928;30;20056;-85
2023/06/30 05:40:30;;;;;;;3.55;3.35;;;;;;;;;;4750232;30;20056;-85
2023/06/30 05:42:57;;;;;;;4.55;3.35;;;;;;;;;;4760248;30;20056;-85
2023/06/30 05:45:27;;;;;;;3.45;3.25;;;;;;;;;;4760840;30;20098;-84
2023/06/30 05:47:54;;;;;;;3.13;2.92;;;;;;;;;;4769363;30;20127;-86
2023/06/30 05:50:23;;;;;;;3.10;3.00;;;;;;;;;;4752730;30;20055;-84
2023/06/30 05:52:50;;;;;;;3.28;3.00;;;;;;;;;;4748161;30;20135;-85
2023/06/30 05:55:18;;;;;;;3.03;2.83;;;;;;;;;;4747283;30;20076;-83
2023/06/30 05:57:48;;;;;;;2.55;2.42;;;;;;;;;;4745019;30;20524;-84
2023/06/30 06:00:16;;;;;;;2.83;2.63;;;;;;;;;;4748232;30;20091;-85
2023/06/30 06:02:43;;;;;;;2.90;2.58;;;;;;;;;;4743086;30;20060;-84
2023/06/30 06:05:11;;;;;;;2.65;2.55;;;;;;;;;;4743120;30;20500;-84
2023/06/30 06:07:40;;;;;;;2.80;2.60;;;;;;;;;;4747296;30;20065;-84
2023/06/30 06:10:08;;;;;;;3.10;2.90;;;;;;;;;;4745214;30;20056;-85
2023/06/30 06:12:35;;;;;;;3.13;2.92;;;;;;;;;;4750785;30;20062;-85
2023/06/30 06:15:03;;;;;;;2.83;2.72;;;;;;;;;;4749674;30;20054;-85
2023/06/30 06:17:30;;;;;;;3.15;2.90;;;;;;;;;;4748276;30;20056;-84
2023/06/30 06:19:58;;;;;;;3.15;2.95;;;;;;;;;;4750927;30;20062;-85
2023/06/30 06:22:30;;;;;;;3.40;3.10;;;;;;;;;;4753095;30;20071;-85
2023/06/30 06:24:58;;;;;;;2.67;2.58;;;;;;;;;;4748844;30;20056;-85
2023/06/30 06:27:26;;;;;;;2.72;2.53;;;;;;;;;;4752830;30;20052;-84
2023/06/30 06:29:53;;;;;;;2.58;2.42;;;;;;;;;;4755843;30;20087;-85
2023/06/30 06:32:20;;;;;;;2.42;2.22;;;;;;;;;;4753608;30;20109;-85
2023/06/30 06:34:48;;;;;;;2.20;2.10;;;;;;;;;;4754436;30;20048;-88
2023/06/30 06:37:16;;;;;;;2.10;2.00;;;;;;;;;;4756771;30;20072;-85
2023/06/30 06:39:43;;;;;;;2.75;2.38;;;;;;;;;;4757887;30;20517;-86
2023/06/30 06:42:10;;;;;;;2.20;2.10;;;;;;;;;;4745069;30;20087;-86
2023/06/30 06:44:39;;;;;;;2.33;2.22;;;;;;;;;;4746678;30;20555;-85
2023/06/30 06:47:25;;;;;;;2.90;2.35;;;;;;;;;;4745447;30;20052;-85
2023/06/30 06:49:52;;;;;;;2.45;2.35;;;;;;;;;;4743496;30;20064;-85
2023/06/30 06:52:20;;;;;;;2.47;2.38;;;;;;;;;;4746614;30;20083;-83
2023/06/30 06:54:47;;;;;;;2.20;2.10;;;;;;;;;;4749835;30;20052;-84
2023/06/30 06:57:15;;;;;;;2.30;2.17;;;;;;;;;;4748733;30;20148;-83
2023/06/30 06:59:43;;;;;;;2.08;1.98;;;;;;;;;;4736840;30;20728;-85
2023/06/30 07:02:11;;;;;;;2.22;2.13;;;;;;;;;;4747543;30;20056;-84
2023/06/30 07:04:38;;;;;;;2.70;2.50;;;;;;;;;;4750413;30;20078;-84
2023/06/30 07:07:06;;;;;;;2.53;2.42;;;;;;;;;;4748288;30;20044;-84
2023/06/30 07:09:33;;;;;;;2.50;2.40;;;;;;;;;;4746914;30;20052;-85
2023/06/30 07:12:01;;;;;;;2.80;2.60;;;;;;;;;;4746079;30;20766;-84
2023/06/30 07:14:28;;;;;;;2.83;2.63;;;;;;;;;;4751603;30;20130;-85
2023/06/30 07:16:56;;;;;;;2.20;2.10;;;;;;;;;;4746311;30;20142;-85
2023/06/30 07:19:23;;;;;;;2.42;2.33;;;;;;;;;;4749586;29;20064;-84
2023/06/30 07:21:51;;;;;;;2.42;2.33;;;;;;;;;;4765796;30;20043;-83
2023/06/30 07:24:19;;;;;;;3.33;2.10;;;;;;;;;;4758434;30;20106;-83
2023/06/30 07:26:47;;;;;;;2.10;2.00;;;;;;;;;;4746197;30;20044;-85
2023/06/30 07:29:14;;;;;;;1.65;1.55;;;;;;;;;;4745011;30;20052;-85
2023/06/30 07:31:42;;;;;;;2.00;1.90;;;;;;;;;;4738802;30;20060;-84
2023/06/30 07:34:09;;;;;;;2.13;1.92;;;;;;;;;;4750288;30;20134;-83
2023/06/30 07:36:37;;;;;;;1.92;1.83;;;;;;;;;;4757326;30;20107;-85
2023/06/30 07:39:05;;;;;;;2.75;2.20;;;;;;;;;;4756691;30;20083;-84
2023/06/30 07:41:34;;;;;;;2.28;2.00;;;;;;;;;;4748750;30;20058;-84
2023/06/30 07:44:03;;;;;;;2.00;1.90;;;;;;;;;;4753138;30;20064;-85
2023/06/30 07:46:30;;;;;;;2.20;1.95;;;;;;;;;;4752901;30;20403;-86
2023/06/30 07:48:58;;;;;;;2.17;1.70;;;;;;;;;;4752182;30;20611;-85
2023/06/30 07:51:25;;;;;;;2.00;1.88;;;;;;;;;;4755177;30;20060;-85
2023/06/30 07:53:53;;;;;;;1.90;1.80;;;;;;;;;;4744276;30;20091;-85
2023/06/30 07:56:20;;;;;;;2.00;1.90;;;;;;;;;;4746640;30;20059;-84
2023/06/30 07:58:47;;;;;;;1.90;1.80;;;;;;;;;;4740901;30;20102;-84
2023/06/30 08:01:15;;;;;;;1.60;1.50;;;;;;;;;;4742681;30;20659;-84
2023/06/30 08:04:11;;;;;;;1.80;1.70;;;;;;;;;;4743506;30;20049;-85
2023/06/30 08:06:45;;;;;;;1.85;1.75;;;;;;;;;;4752535;30;20080;-85
2023/06/30 08:09:12;;;;;;;1.50;1.50;;;;;;;;;;4743869;30;20131;-85
2023/06/30 08:11:42;;;;;;;1.80;1.70;;;;;;;;;;4743950;30;20056;-84
2023/06/30 08:17:03;;;;;;;3.08;1.80;;;;;;;;;;4744573;30;20092;-84
2023/06/30 08:19:30;;;;;;;2.75;1.80;;;;;;;;;;4743597;30;20590;-84
2023/06/30 08:22:16;;;;;;;1.88;1.70;;;;;;;;;;4743443;30;20100;-84
2023/06/30 08:24:43;;;;;;;1.42;1.38;;;;;;;;;;4737866;30;20052;-84
2023/06/30 08:27:11;;;;;;;1.70;1.60;;;;;;;;;;4748202;30;20052;-84
2023/06/30 08:29:38;;;;;;;1.58;1.48;;;;;;;;;;4745920;30;20056;-82
2023/06/30 08:32:06;;;;;;;1.60;1.50;;;;;;;;;;4734259;30;20092;-83
2023/06/30 08:34:33;;;;;;;1.70;1.60;;;;;;;;;;4741502;30;20078;-85
2023/06/30 08:37:00;;;;;;;1.50;1.40;;;;;;;;;;4740513;30;20547;-83
2023/06/30 08:39:28;;;;;;;1.83;1.42;;;;;;;;;;4748667;30;20079;-85
2023/06/30 08:41:56;;;;;;;1.50;1.40;;;;;;;;;;4764320;30;20075;-85
2023/06/30 08:44:26;;;;;;;1.77;1.67;;;;;;;;;;4761809;30;20056;-83
2023/06/30 08:46:55;;;;;;;1.80;1.70;;;;;;;;;;4766666;30;20076;-84
2023/06/30 08:49:23;;;;;;;1.60;1.50;;;;;;;;;;4769849;29;20048;-84
2023/06/30 08:52:00;;;;;;;1.95;1.52;;;;;;;;;;4767875;30;20056;-86
2023/06/30 08:54:30;;;;;;;1.50;1.40;;;;;;;;;;4764157;30;20111;-84
2023/06/30 08:56:57;;;;;;;1.30;1.25;;;;;;;;;;4757918;30;20052;-83
2023/06/30 08:59:26;;;;;;;1.20;1.20;;;;;;;;;;4753177;30;20057;-84
2023/06/30 09:01:55;;;;;;;1.38;1.38;;;;;;;;;;4747875;30;20072;-84
2023/06/30 09:04:23;;;;;;;1.30;1.30;;;;;;;;;;4756295;30;20044;-84
2023/06/30 09:07:15;;;;;;;1.50;1.40;;;;;;;;;;4749062;30;20079;-84
2023/06/30 09:09:45;;;;;;;1.60;1.60;;;;;;;;;;4743870;30;20048;-85
2023/06/30 09:12:13;;;;;;;1.60;1.50;;;;;;;;;;4753002;30;20494;-83
2023/06/30 09:14:45;;;;;;;2.58;1.70;;;;;;;;;;4748813;30;20052;-84
2023/06/30 09:17:12;;;;;;;1.90;1.80;;;;;;;;;;4750376;30;20092;-84
2023/06/30 09:19:42;;;;;;;1.77;1.67;;;;;;;;;;4748176;30;20726;-84
2023/06/30 09:22:11;;;;;;;1.85;1.75;;;;;;;;;;4742060;30;20049;-84
2023/06/30 09:24:59;;;;;;;2.00;1.90;;;;;;;;;;4744420;30;21008;-84
2023/06/30 09:27:27;;;;;;;2.83;1.67;;;;;;;;;;4748171;30;20048;-83
2023/06/30 09:29:58;;;;;;;1.90;1.70;;;;;;;;;;4749509;30;20067;-84
2023/06/30 09:32:30;;;;;;;1.95;1.63;;;;;;;;;;4740214;30;20071;-84
2023/06/30 09:34:57;;;;;;;;;;;;;;;;;;4746389;30;20049;-82
2023/06/30 09:37:24;;;;;;;1.40;1.40;;;;;;;;;;4751652;30;19965;-83
2023/06/30 09:39:52;;;;;;;1.58;1.50;;;;;;;;;;4750265;30;20045;-82
2023/06/30 09:42:21;;;;;;;1.73;1.63;;;;;;;;;;4751395;30;20047;-83
2023/06/30 09:44:53;;;;;;;1.60;1.60;;;;;;;;;;4754492;30;20136;-83
2023/06/30 09:47:20;;;;;;;1.45;1.45;;;;;;;;;;4751000;30;20051;-84
2023/06/30 09:49:48;;;;;;;1.85;1.75;;;;;;;;;;4749714;30;20436;-83
2023/06/30 09:52:24;;;;;;;1.95;1.85;;;;;;;;;;4745149;30;20059;-84
2023/06/30 09:54:52;;;;;;;4.07;2.28;;;;;;;;;;4749496;30;20377;-84
2023/06/30 09:57:19;;;;;;;1.60;1.60;;;;;;;;;;4751809;30;20075;-82
2023/06/30 09:59:47;;;;;;;2.92;1.95;;;;;;;;;;4753556;30;20080;-83
2023/06/30 10:02:16;;;;;;;1.80;1.70;;;;;;;;;;4749529;30;20060;-82
2023/06/30 10:04:43;;;;;;;2.05;1.92;;;;;;;;;;4755463;30;20067;-83
2023/06/30 10:07:14;;;;;;;1.83;1.73;;;;;;;;;;4711137;30;1118091;-84
2023/06/30 10:09:45;;;;;;;1.90;1.80;;;;;;;;;;4757187;30;20052;-84
2023/06/30 10:12:13;;;;;;;1.90;1.80;;;;;;;;;;4748273;30;20059;-83
2023/06/30 10:14:41;;;;;;;1.95;1.85;;;;;;;;;;4748045;30;20109;-83
2023/06/30 10:17:09;;;;;;;2.50;2.30;;;;;;;;;;4752834;30;20052;-83
2023/06/30 10:19:39;;;;;;;1.98;1.88;;;;;;;;;;4757107;30;20281;-82
2023/06/30 10:22:06;;;;;;;2.45;2.25;;;;;;;;;;4756159;30;20059;-84
2023/06/30 10:24:37;;;;;;;2.50;2.30;;;;;;;;;;4752520;30;20117;-86
2023/06/30 10:27:09;;;;;;;1.92;1.83;;;;;;;;;;4754653;30;20063;-83
2023/06/30 10:29:37;;;;;;;2.10;1.90;;;;;;;;;;4752664;30;20875;-83
2023/06/30 10:32:07;;;;;;;2.13;2.03;;;;;;;;;;4750100;30;20056;-83
2023/06/30 10:34:34;;;;;;;2.10;2.00;;;;;;;;;;4749584;30;20499;-84
2023/06/30 10:37:02;;;;;;;1.98;1.83;;;;;;;;;;4750052;30;20048;-83
2023/06/30 10:39:30;;;;;;;2.28;1.85;;;;;;;;;;4745005;30;20500;-83
2023/06/30 10:41:57;;;;;;;3.00;1.80;;;;;;;;;;4748641;30;20142;-83
2023/06/30 10:44:38;;;;;;;1.77;1.67;;;;;;;;;;4749358;30;20047;-84
2023/06/30 10:47:05;;;;;;;1.70;1.67;;;;;;;;;;4748022;30;20468;-83
2023/06/30 10:49:37;;;;;;;2.40;2.25;;;;;;;;;;4733703;30;20110;-85
2023/06/30 10:52:25;;;;;;;2.08;1.98;;;;;;;;;;4740735;30;20064;-83
2023/06/30 10:54:53;;;;;;;2.92;1.90;;;;;;;;;;4744076;30;20474;-84
2023/06/30 10:57:22;;;;;;;1.80;1.70;;;;;;;;;;4731613;30;20056;-84
2023/06/30 11:00:04;;;;;;;2.35;2.17;;;;;;;;;;4737713;30;20056;-84
2023/06/30 11:02:32;;;;;;;1.80;1.70;;;;;;;;;;4743022;30;20052;-85
2023/06/30 11:05:18;;;;;;;1.58;1.58;;;;;;;;;;4742199;30;20060;-84
2023/06/30 11:07:49;;;;;;;3.55;1.67;;;;;;;;;;4740137;30;20060;-85
2023/06/30 11:10:27;;;;;;;1.55;1.48;;;;;;;;;;4742698;30;20485;-85
2023/06/30 11:12:56;;;;;;;1.67;1.52;;;;;;;;;;4749024;30;20052;-85
2023/06/30 11:15:25;;;;;;;1.63;1.55;;;;;;;;;;4752329;30;20738;-84
2023/06/30 11:17:54;;;;;;;3.20;1.90;;;;;;;;;;4751593;30;20096;-84
2023/06/30 11:20:27;;;;;;;1.65;1.55;;;;;;;;;;4753258;30;20052;-84
2023/06/30 11:22:57;;;;;;;2.00;1.60;;;;;;;;;;4746978;30;20044;-85
2023/06/30 11:25:24;;;;;;;1.73;1.63;;;;;;;;;;4751369;30;20083;-84
2023/06/30 11:27:52;;;;;;;1.60;1.50;;;;;;;;;;4754047;30;20048;-85
2023/06/30 11:30:22;;;;;;;1.60;1.60;;;;;;;;;;4748782;30;20110;-85
2023/06/30 11:32:55;;;;;;;1.57;1.50;;;;;;;;;;4753810;30;20519;-84
2023/06/30 11:35:22;;;;;;;1.20;1.20;;;;;;;;;;4751446;30;20129;-84
2023/06/30 11:37:51;;;;;;;2.60;1.70;;;;;;;;;;4752952;30;20051;-84
2023/06/30 11:40:19;;;;;;;1.50;1.50;;;;;;;;;;4745866;30;20056;-85
2023/06/30 11:42:47;;;;;;;1.58;1.48;;;;;;;;;;4747877;30;20056;-85
2023/06/30 11:45:19;;;;;;;1.50;1.40;;;;;;;;;;4741764;30;20057;-83
2023/06/30 11:47:54;;;;;;;1.60;1.50;;;;;;;;;;4738005;30;20052;-84
2023/06/30 11:50:22;;;;;;;1.63;1.52;;;;;;;;;;4750070;30;20052;-83
2023/06/30 11:52:49;;;;;;;1.70;1.60;;;;;;;;;;4739972;30;20075;-84
2023/06/30 11:55:23;;;;;;;1.60;1.50;;;;;;;;;;4746914;30;20069;-84
2023/06/30 11:57:51;;;;;;;2.10;2.00;;;;;;;;;;4739848;30;20052;-83
2023/06/30 12:00:19;;;;;;;2.70;2.50;;;;;;;;;;4750494;30;20338;-84
2023/06/30 12:02:58;;;;;;;2.33;2.22;;;;;;;;;;4742560;30;20053;-84
2023/06/30 12:05:26;;;;;;;3.08;2.88;;;;;;;;;;4742177;30;20040;-84
2023/06/30 12:07:55;;;;;;;2.40;2.30;;;;;;;;;;4752231;30;20052;-84
2023/06/30 12:10:38;;;;;;;2.22;2.13;;;;;;;;;;4751356;30;20124;-84
2023/06/30 12:13:07;;;;;;;2.47;2.38;;;;;;;;;;4745922;30;20140;-84
2023/06/30 12:15:35;;;;;;;3.00;2.80;;;;;;;;;;4749750;30;20114;-84
2023/06/30 12:18:06;;;;;;;2.85;2.65;;;;;;;;;;4750548;30;20064;-84
2023/06/30 12:20:35;;;;;;;3.15;2.33;;;;;;;;;;4746994;30;20397;-83
2023/06/30 12:23:06;;;;;;;2.60;2.50;;;;;;;;;;4750888;30;20131;-84
2023/06/30 12:25:37;;;;;;;2.40;2.30;;;;;;;;;;4744606;30;20055;-84
2023/06/30 12:28:05;;;;;;;2.47;2.38;;;;;;;;;;4743757;30;20048;-84
2023/06/30 12:30:32;;;;;;;2.60;2.40;;;;;;;;;;4747093;30;20048;-83
2023/06/30 12:33:01;;;;;;;2.83;2.63;;;;;;;;;;4749677;30;20094;-84
2023/06/30 12:35:30;;;;;;;2.78;2.58;;;;;;;;;;4747433;30;20071;-84
2023/06/30 12:37:58;;;;;;;4.30;3.60;;;;;;;;;;4749194;30;20044;-84
2023/06/30 12:40:28;;;;;;;3.67;3.38;;;;;;;;;;4751161;30;20565;-84
2023/06/30 12:42:55;;;;;;;3.70;3.50;;;;;;;;;;4752269;30;20127;-85
2023/06/30 12:45:23;;;;;;;3.40;3.20;;;;;;;;;;4751797;30;20077;-83
2023/06/30 12:47:50;;;;;;;3.70;3.40;;;;;;;;;;4750796;30;20531;-85
2023/06/30 12:50:19;;;;;;;3.53;3.33;;;;;;;;;;4764315;30;20595;-84
2023/06/30 12:52:47;;;;;;;3.40;3.10;;;;;;;;;;4750135;30;20056;-84
2023/06/30 12:55:14;;;;;;;3.85;3.60;;;;;;;;;;4745768;30;20052;-85
2023/06/30 12:57:42;;;;;;;3.50;3.30;;;;;;;;;;4749735;30;20128;-84
2023/06/30 13:00:09;;;;;;;3.90;2.85;;;;;;;;;;4750503;30;20136;-84
2023/06/30 13:02:37;;;;;;;3.40;2.97;;;;;;;;;;4749229;30;20055;-84
2023/06/30 13:05:06;;;;;;;3.47;3.17;;;;;;;;;;4750297;30;20044;-84
2023/06/30 13:07:35;;;;;;;4.78;4.40;;;;;;;;;;4750361;30;20506;-86
2023/06/30 13:10:04;;;;;;;3.92;3.60;;;;;;;;;;4750575;30;20060;-84
2023/06/30 13:12:32;;;;;;;4.20;3.90;;;;;;;;;;4750706;30;20051;-84
2023/06/30 13:15:00;;;;;;;4.47;4.07;;;;;;;;;;4749935;30;20087;-83
2023/06/30 13:17:27;;;;;;;4.20;3.80;;;;;;;;;;4748428;30;20056;-84
2023/06/30 13:19:54;;;;;;;4.13;3.72;;;;;;;;;;4749167;30;20508;-86
2023/06/30 13:22:22;;;;;;;5.03;4.63;;;;;;;;;;4746885;30;20424;-87
2023/06/30 13:25:00;;;;;;;4.10;3.80;;;;;;;;;;4750530;30;20080;-85
2023/06/30 13:27:30;;;;;;;4.30;3.88;;;;;;;;;;4732277;30;20385;-87
2023/06/30 13:30:00;;;;;;;4.60;4.20;;;;;;;;;;4745991;30;20064;-89
2023/06/30 13:32:32;;;;;;;4.35;4.05;;;;;;;;;;4752759;30;20274;-85
2023/06/30 13:35:00;;;;;;;5.10;4.70;;;;;;;;;;4743808;30;20585;-85
2023/06/30 13:37:29;;;;;;;4.75;4.35;;;;;;;;;;4751241;30;20055;-86
2023/06/30 13:39:57;;;;;;;4.60;4.30;;;;;;;;;;4747445;30;20420;-87
2023/06/30 13:42:25;;;;;;;4.68;4.20;;;;;;;;;;4749592;30;20109;-86
2023/06/30 13:44:52;;;;;;;4.38;3.97;;;;;;;;;;4750510;30;20069;-85
2023/06/30 13:47:19;;;;;;;3.92;3.63;;;;;;;;;;4754099;30;20048;-85
2023/06/30 13:49:50;;;;;;;4.40;4.10;;;;;;;;;;4750641;30;20184;-87
2023/06/30 13:52:17;;;;;;;3.70;3.45;;;;;;;;;;4770514;30;20071;-86
2023/06/30 13:54:45;;;;;;;4.28;3.90;;;;;;;;;;4753686;30;20083;-85
2023/06/30 13:57:13;;;;;;;4.03;3.70;;;;;;;;;;4754088;30;20415;-85
2023/06/30 13:59:42;;;;;;;3.72;3.42;;;;;;;;;;4752456;30;20048;-85
2023/06/30 14:02:10;;;;;;;3.85;3.60;;;;;;;;;;4753141;30;20056;-86
2023/06/30 14:04:39;;;;;;;3.60;3.30;;;;;;;;;;4750148;30;20727;-86
2023/06/30 14:07:11;;;;;;;3.08;2.97;;;;;;;;;;4749753;30;20049;-86
2023/06/30 14:09:42;;;;;;;3.60;3.30;;;;;;;;;;4749754;30;20052;-85
2023/06/30 14:12:10;;;;;;;3.15;2.95;;;;;;;;;;4755260;30;20066;-86
2023/06/30 14:14:37;;;;;;;3.15;2.95;;;;;;;;;;4753012;30;20052;-87
2023/06/30 14:17:05;;;;;;;3.25;3.05;;;;;;;;;;4752695;30;20512;-84
2023/06/30 14:19:33;;;;;;;3.10;2.85;;;;;;;;;;4749053;30;20131;-85
2023/06/30 14:22:01;;;;;;;2.40;2.28;;;;;;;;;;4754862;30;20066;-85
2023/06/30 14:24:35;;;;;;;3.65;3.35;;;;;;;;;;4751526;30;20071;-83
2023/06/30 14:27:18;;;;;;;3.13;2.92;;;;;;;;;;4750206;30;20151;-84
2023/06/30 14:29:49;;;;;;;2.90;2.70;;;;;;;;;;4756335;30;20155;-84
2023/06/30 14:32:18;;;;;;;2.90;2.70;;;;;;;;;;4750478;30;20052;-84
2023/06/30 14:34:49;;;;;;;2.97;2.78;;;;;;;;;;4739896;30;20116;-84
2023/06/30 14:37:17;;;;;;;2.90;2.70;;;;;;;;;;4755048;30;20138;-84
2023/06/30 14:39:47;;;;;;;2.55;2.38;;;;;;;;;;4752466;30;20064;-83
2023/06/30 14:42:17;;;;;;;2.55;2.35;;;;;;;;;;4748597;30;20048;-84
2023/06/30 14:45:10;;;;;;;2.20;2.10;;;;;;;;;;4755764;30;20105;-86
2023/06/30 14:47:43;;;;;;;2.97;2.50;;;;;;;;;;4754560;30;20100;-85
2023/06/30 14:50:10;;;;;;;2.70;2.50;;;;;;;;;;4771070;30;20074;-84
2023/06/30 14:52:38;;;;;;;2.70;2.60;;;;;;;;;;4751423;30;20044;-85
2023/06/30 14:55:08;;;;;;;2.78;2.60;;;;;;;;;;4743131;30;20116;-86
2023/06/30 14:57:38;;;;;;;2.60;2.40;;;;;;;;;;4745854;30;20510;-87